Terminal Aerodrome Forecast
Issued by NWS Albany, NY

Home | Current Version | Previous Version | Text Only | Print | Product List | Glossary On
Versions: 1 2 3 4 5 6 7 8 9 10 11 12 13 14 15 16 17 18 19 20 21 22 23 24 25
000
FTUS41 KALY 212000 AAA
TAFGFL
TAF AMD
KGFL 212038Z 2121/2218 04006KT P6SM VCSH BKN015 OVC024
      TEMPO 2121/2123 4SM -SHRA BR SCT015 OVC020
     FM212300 VRB03KT 4SM -SHRA BR OVC015
      TEMPO 2123/2202 2SM -RA BR OVC009
     FM220200 00000KT 3SM -SHRA BR SCT008 OVC015
     FM220600 00000KT 2SM BR VCSH OVC008
     FM221200 VRB03KT P6SM VCSH SCT008 OVC015=

USA.gov is the U.S. government's official web portal to all federal, state and local government web resources and services.